sensor_id;sensor_type;location;lat;lon;timestamp;temperature;humidity
15617;DHT22;7908;51.688;7.130;2023-10-19T00:00:58;9.80;99.90
15617;DHT22;7908;51.688;7.130;2023-10-19T00:03:27;9.90;99.90
15617;DHT22;7908;51.688;7.130;2023-10-19T00:05:56;9.90;99.90
15617;DHT22;7908;51.688;7.130;2023-10-19T00:08:25;9.90;99.90
15617;DHT22;7908;51.688;7.130;2023-10-19T00:11:03;9.90;99.90
15617;DHT22;7908;51.688;7.130;2023-10-19T00:13:36;9.90;99.90
15617;DHT22;7908;51.688;7.130;2023-10-19T00:16:07;9.90;99.90
15617;DHT22;7908;51.688;7.130;2023-10-19T00:18:44;10.00;99.90
15617;DHT22;7908;51.688;7.130;2023-10-19T00:21:16;10.00;99.90
15617;DHT22;7908;51.688;7.130;2023-10-19T00:23:51;10.00;99.90
15617;DHT22;7908;51.688;7.130;2023-10-19T00:26:23;10.00;99.90
15617;DHT22;7908;51.688;7.130;2023-10-19T00:28:54;10.00;99.90
15617;DHT22;7908;51.688;7.130;2023-10-19T00:31:26;10.10;99.90
15617;DHT22;7908;51.688;7.130;2023-10-19T00:33:55;10.10;99.90
15617;DHT22;7908;51.688;7.130;2023-10-19T00:36:25;10.10;99.90
15617;DHT22;7908;51.688;7.130;2023-10-19T00:38:58;10.10;99.90
15617;DHT22;7908;51.688;7.130;2023-10-19T00:41:28;10.10;99.90
15617;DHT22;7908;51.688;7.130;2023-10-19T00:43:59;10.20;99.90
15617;DHT22;7908;51.688;7.130;2023-10-19T00:46:32;10.20;99.90
15617;DHT22;7908;51.688;7.130;2023-10-19T00:49:05;10.20;99.90
15617;DHT22;7908;51.688;7.130;2023-10-19T00:51:36;10.20;99.90
15617;DHT22;7908;51.688;7.130;2023-10-19T00:54:19;10.30;99.90
15617;DHT22;7908;51.688;7.130;2023-10-19T00:56:54;10.20;99.90
15617;DHT22;7908;51.688;7.130;2023-10-19T00:59:26;10.20;99.90
15617;DHT22;7908;51.688;7.130;2023-10-19T01:02:03;10.20;99.90
15617;DHT22;7908;51.688;7.130;2023-10-19T01:04:45;10.30;99.90
15617;DHT22;7908;51.688;7.130;2023-10-19T01:07:18;10.30;99.90
15617;DHT22;7908;51.688;7.130;2023-10-19T01:09:55;10.30;99.90
15617;DHT22;7908;51.688;7.130;2023-10-19T01:12:24;10.30;99.90
15617;DHT22;7908;51.688;7.130;2023-10-19T01:15:08;10.30;99.90
15617;DHT22;7908;51.688;7.130;2023-10-19T01:17:46;10.40;99.90
15617;DHT22;7908;51.688;7.130;2023-10-19T01:20:22;10.40;99.90
15617;DHT22;7908;51.688;7.130;2023-10-19T01:23:04;10.40;99.90
15617;DHT22;7908;51.688;7.130;2023-10-19T01:25:49;10.40;99.90
15617;DHT22;7908;51.688;7.130;2023-10-19T01:28:28;10.40;99.90
15617;DHT22;7908;51.688;7.130;2023-10-19T01:31:11;10.50;99.90
15617;DHT22;7908;51.688;7.130;2023-10-19T01:33:44;10.50;99.90
15617;DHT22;7908;51.688;7.130;2023-10-19T01:36:13;10.50;99.90
15617;DHT22;7908;51.688;7.130;2023-10-19T01:38:54;10.50;99.90
15617;DHT22;7908;51.688;7.130;2023-10-19T01:41:28;10.60;99.90
15617;DHT22;7908;51.688;7.130;2023-10-19T01:43:58;10.60;99.90
15617;DHT22;7908;51.688;7.130;2023-10-19T01:46:34;10.60;99.90
15617;DHT22;7908;51.688;7.130;2023-10-19T01:49:04;10.60;99.90
15617;DHT22;7908;51.688;7.130;2023-10-19T01:51:34;10.60;99.90
15617;DHT22;7908;51.688;7.130;2023-10-19T01:54:07;10.60;99.90
15617;DHT22;7908;51.688;7.130;2023-10-19T01:56:36;10.60;99.90
15617;DHT22;7908;51.688;7.130;2023-10-19T01:59:06;10.60;99.90
15617;DHT22;7908;51.688;7.130;2023-10-19T02:01:36;10.60;99.90
15617;DHT22;7908;51.688;7.130;2023-10-19T02:04:05;10.60;99.90
15617;DHT22;7908;51.688;7.130;2023-10-19T02:06:36;10.70;99.90
15617;DHT22;7908;51.688;7.130;2023-10-19T02:09:08;10.70;99.90
15617;DHT22;7908;51.688;7.130;2023-10-19T02:11:45;10.70;99.90
15617;DHT22;7908;51.688;7.130;2023-10-19T02:14:15;10.70;99.90
15617;DHT22;7908;51.688;7.130;2023-10-19T02:16:44;10.70;99.90
15617;DHT22;7908;51.688;7.130;2023-10-19T02:19:14;10.70;99.90
15617;DHT22;7908;51.688;7.130;2023-10-19T02:21:43;10.70;99.90
15617;DHT22;7908;51.688;7.130;2023-10-19T02:24:16;10.80;99.90
15617;DHT22;7908;51.688;7.130;2023-10-19T02:26:46;10.70;99.90
15617;DHT22;7908;51.688;7.130;2023-10-19T02:29:14;10.80;99.90
15617;DHT22;7908;51.688;7.130;2023-10-19T02:31:43;10.80;99.90
15617;DHT22;7908;51.688;7.130;2023-10-19T02:34:12;10.80;99.90
15617;DHT22;7908;51.688;7.130;2023-10-19T02:36:43;10.80;99.90
15617;DHT22;7908;51.688;7.130;2023-10-19T02:39:13;10.80;99.90
15617;DHT22;7908;51.688;7.130;2023-10-19T02:41:44;10.80;99.90
15617;DHT22;7908;51.688;7.130;2023-10-19T02:44:15;10.80;99.90
15617;DHT22;7908;51.688;7.130;2023-10-19T02:46:47;10.80;99.90
15617;DHT22;7908;51.688;7.130;2023-10-19T02:49:19;10.80;99.90
15617;DHT22;7908;51.688;7.130;2023-10-19T02:51:48;10.90;99.90
15617;DHT22;7908;51.688;7.130;2023-10-19T02:54:19;10.90;99.90
15617;DHT22;7908;51.688;7.130;2023-10-19T02:56:52;10.90;99.90
15617;DHT22;7908;51.688;7.130;2023-10-19T02:59:22;10.90;99.90
15617;DHT22;7908;51.688;7.130;2023-10-19T03:01:52;10.90;99.90
15617;DHT22;7908;51.688;7.130;2023-10-19T03:04:22;10.90;99.90
15617;DHT22;7908;51.688;7.130;2023-10-19T03:06:52;10.90;99.90
15617;DHT22;7908;51.688;7.130;2023-10-19T03:09:20;10.90;99.90
15617;DHT22;7908;51.688;7.130;2023-10-19T03:11:57;10.90;99.90
15617;DHT22;7908;51.688;7.130;2023-10-19T03:14:27;10.90;99.90
15617;DHT22;7908;51.688;7.130;2023-10-19T03:16:57;11.00;99.90
15617;DHT22;7908;51.688;7.130;2023-10-19T03:19:25;11.00;99.90
15617;DHT22;7908;51.688;7.130;2023-10-19T03:21:54;11.00;99.90
15617;DHT22;7908;51.688;7.130;2023-10-19T03:24:23;11.00;99.90
15617;DHT22;7908;51.688;7.130;2023-10-19T03:27:06;11.00;99.90
15617;DHT22;7908;51.688;7.130;2023-10-19T03:29:40;11.00;99.90
15617;DHT22;7908;51.688;7.130;2023-10-19T03:32:13;11.00;99.90
15617;DHT22;7908;51.688;7.130;2023-10-19T03:34:43;11.00;99.90
15617;DHT22;7908;51.688;7.130;2023-10-19T03:37:15;11.10;99.90
15617;DHT22;7908;51.688;7.130;2023-10-19T03:39:46;11.10;99.90
15617;DHT22;7908;51.688;7.130;2023-10-19T03:42:16;11.10;99.90
15617;DHT22;7908;51.688;7.130;2023-10-19T03:44:48;11.10;99.90
15617;DHT22;7908;51.688;7.130;2023-10-19T03:47:21;11.10;99.90
15617;DHT22;7908;51.688;7.130;2023-10-19T03:49:53;11.20;99.90
15617;DHT22;7908;51.688;7.130;2023-10-19T03:52:23;11.20;99.90
15617;DHT22;7908;51.688;7.130;2023-10-19T03:54:57;11.40;99.90
15617;DHT22;7908;51.688;7.130;2023-10-19T03:57:28;11.50;99.90
15617;DHT22;7908;51.688;7.130;2023-10-19T03:59:57;11.60;99.90
15617;DHT22;7908;51.688;7.130;2023-10-19T04:02:27;11.60;99.90
15617;DHT22;7908;51.688;7.130;2023-10-19T04:04:57;11.70;99.90
15617;DHT22;7908;51.688;7.130;2023-10-19T04:07:28;11.70;99.90
15617;DHT22;7908;51.688;7.130;2023-10-19T04:09:59;11.80;99.90
15617;DHT22;7908;51.688;7.130;2023-10-19T04:12:58;11.90;99.90
15617;DHT22;7908;51.688;7.130;2023-10-19T04:15:28;11.90;99.90
15617;DHT22;7908;51.688;7.130;2023-10-19T04:18:01;12.00;99.90
15617;DHT22;7908;51.688;7.130;2023-10-19T04:20:35;12.00;99.90
15617;DHT22;7908;51.688;7.130;2023-10-19T04:23:22;12.00;99.90
15617;DHT22;7908;51.688;7.130;2023-10-19T04:25:54;12.10;99.90
15617;DHT22;7908;51.688;7.130;2023-10-19T04:28:27;12.10;99.90
15617;DHT22;7908;51.688;7.130;2023-10-19T04:31:05;12.10;99.90
15617;DHT22;7908;51.688;7.130;2023-10-19T04:33:34;12.20;99.90
15617;DHT22;7908;51.688;7.130;2023-10-19T04:36:03;12.20;99.90
15617;DHT22;7908;51.688;7.130;2023-10-19T04:38:35;12.20;99.90
15617;DHT22;7908;51.688;7.130;2023-10-19T04:41:05;12.30;99.90
15617;DHT22;7908;51.688;7.130;2023-10-19T04:43:37;12.30;99.90
15617;DHT22;7908;51.688;7.130;2023-10-19T04:46:08;12.30;99.90
15617;DHT22;7908;51.688;7.130;2023-10-19T04:48:39;12.40;99.90
15617;DHT22;7908;51.688;7.130;2023-10-19T04:51:10;12.40;99.90
15617;DHT22;7908;51.688;7.130;2023-10-19T04:53:38;12.40;99.90
15617;DHT22;7908;51.688;7.130;2023-10-19T04:56:08;12.40;99.90
15617;DHT22;7908;51.688;7.130;2023-10-19T04:58:38;12.50;99.90
15617;DHT22;7908;51.688;7.130;2023-10-19T05:01:07;12.50;99.90
15617;DHT22;7908;51.688;7.130;2023-10-19T05:03:39;12.50;99.90
15617;DHT22;7908;51.688;7.130;2023-10-19T05:06:08;12.50;99.90
15617;DHT22;7908;51.688;7.130;2023-10-19T05:08:37;12.50;99.90
15617;DHT22;7908;51.688;7.130;2023-10-19T05:11:06;12.60;99.90
15617;DHT22;7908;51.688;7.130;2023-10-19T05:13:35;12.60;99.90
15617;DHT22;7908;51.688;7.130;2023-10-19T05:16:06;12.60;99.90
15617;DHT22;7908;51.688;7.130;2023-10-19T05:18:35;12.60;99.90
15617;DHT22;7908;51.688;7.130;2023-10-19T05:21:04;12.60;99.90
15617;DHT22;7908;51.688;7.130;2023-10-19T05:23:33;12.70;99.90
15617;DHT22;7908;51.688;7.130;2023-10-19T05:26:03;12.70;99.90
15617;DHT22;7908;51.688;7.130;2023-10-19T05:28:32;12.70;99.90
15617;DHT22;7908;51.688;7.130;2023-10-19T05:31:00;12.70;99.90
15617;DHT22;7908;51.688;7.130;2023-10-19T05:33:33;12.70;99.90
15617;DHT22;7908;51.688;7.130;2023-10-19T05:36:01;12.70;99.90
15617;DHT22;7908;51.688;7.130;2023-10-19T05:38:30;12.70;99.90
15617;DHT22;7908;51.688;7.130;2023-10-19T05:41:00;12.70;99.90
15617;DHT22;7908;51.688;7.130;2023-10-19T05:43:29;12.70;99.90
15617;DHT22;7908;51.688;7.130;2023-10-19T05:45:58;12.80;99.90
15617;DHT22;7908;51.688;7.130;2023-10-19T05:48:27;12.80;99.90
15617;DHT22;7908;51.688;7.130;2023-10-19T05:50:57;12.80;99.90
15617;DHT22;7908;51.688;7.130;2023-10-19T05:53:26;12.80;99.90
15617;DHT22;7908;51.688;7.130;2023-10-19T05:55:56;12.80;99.90
15617;DHT22;7908;51.688;7.130;2023-10-19T05:58:25;12.80;99.90
15617;DHT22;7908;51.688;7.130;2023-10-19T06:00:58;12.80;99.90
15617;DHT22;7908;51.688;7.130;2023-10-19T06:03:27;12.90;99.90
15617;DHT22;7908;51.688;7.130;2023-10-19T06:05:57;12.80;99.90
15617;DHT22;7908;51.688;7.130;2023-10-19T06:08:26;12.90;99.90
15617;DHT22;7908;51.688;7.130;2023-10-19T06:10:56;12.90;99.90
15617;DHT22;7908;51.688;7.130;2023-10-19T06:13:25;12.90;99.90
15617;DHT22;7908;51.688;7.130;2023-10-19T06:15:54;12.90;99.90
15617;DHT22;7908;51.688;7.130;2023-10-19T06:18:22;12.90;99.90
15617;DHT22;7908;51.688;7.130;2023-10-19T06:20:54;12.90;99.90
15617;DHT22;7908;51.688;7.130;2023-10-19T06:23:24;12.80;99.90
15617;DHT22;7908;51.688;7.130;2023-10-19T06:25:53;12.80;99.90
15617;DHT22;7908;51.688;7.130;2023-10-19T06:28:22;12.80;99.90
15617;DHT22;7908;51.688;7.130;2023-10-19T06:30:54;12.80;99.90
15617;DHT22;7908;51.688;7.130;2023-10-19T06:33:23;12.80;99.90
15617;DHT22;7908;51.688;7.130;2023-10-19T06:35:55;12.80;99.90
15617;DHT22;7908;51.688;7.130;2023-10-19T06:38:28;12.80;99.90
15617;DHT22;7908;51.688;7.130;2023-10-19T06:40:57;12.80;99.90
15617;DHT22;7908;51.688;7.130;2023-10-19T06:43:26;12.80;99.90
15617;DHT22;7908;51.688;7.130;2023-10-19T06:46:00;12.80;99.90
15617;DHT22;7908;51.688;7.130;2023-10-19T06:48:29;12.90;99.90
15617;DHT22;7908;51.688;7.130;2023-10-19T06:50:58;12.90;99.90
15617;DHT22;7908;51.688;7.130;2023-10-19T06:53:29;12.90;99.90
15617;DHT22;7908;51.688;7.130;2023-10-19T06:55:58;12.90;99.90
15617;DHT22;7908;51.688;7.130;2023-10-19T06:58:28;12.90;99.90
15617;DHT22;7908;51.688;7.130;2023-10-19T07:00:57;12.90;99.90
15617;DHT22;7908;51.688;7.130;2023-10-19T07:03:27;13.00;99.90
15617;DHT22;7908;51.688;7.130;2023-10-19T07:05:56;13.00;99.90
15617;DHT22;7908;51.688;7.130;2023-10-19T07:08:26;13.00;99.90
15617;DHT22;7908;51.688;7.130;2023-10-19T07:10:57;13.00;99.90
15617;DHT22;7908;51.688;7.130;2023-10-19T07:13:27;13.00;99.90
15617;DHT22;7908;51.688;7.130;2023-10-19T07:16:00;13.00;99.90
15617;DHT22;7908;51.688;7.130;2023-10-19T07:18:31;13.10;99.90
15617;DHT22;7908;51.688;7.130;2023-10-19T07:21:00;13.10;99.90
15617;DHT22;7908;51.688;7.130;2023-10-19T07:23:31;13.10;99.90
15617;DHT22;7908;51.688;7.130;2023-10-19T07:26:02;13.10;99.90
15617;DHT22;7908;51.688;7.130;2023-10-19T07:28:31;13.20;99.90
15617;DHT22;7908;51.688;7.130;2023-10-19T07:31:05;13.20;99.90
15617;DHT22;7908;51.688;7.130;2023-10-19T07:33:39;13.20;99.90
15617;DHT22;7908;51.688;7.130;2023-10-19T07:36:16;13.20;99.90
15617;DHT22;7908;51.688;7.130;2023-10-19T07:38:46;13.30;99.90
15617;DHT22;7908;51.688;7.130;2023-10-19T07:41:17;13.30;99.90
15617;DHT22;7908;51.688;7.130;2023-10-19T07:43:46;13.30;99.90
15617;DHT22;7908;51.688;7.130;2023-10-19T07:46:15;13.40;99.90
15617;DHT22;7908;51.688;7.130;2023-10-19T07:48:44;13.40;99.90
15617;DHT22;7908;51.688;7.130;2023-10-19T07:51:13;13.40;99.90
15617;DHT22;7908;51.688;7.130;2023-10-19T07:53:43;13.50;99.90
15617;DHT22;7908;51.688;7.130;2023-10-19T07:56:13;13.50;99.90
15617;DHT22;7908;51.688;7.130;2023-10-19T07:58:43;13.50;99.90
15617;DHT22;7908;51.688;7.130;2023-10-19T08:01:13;13.60;99.90
15617;DHT22;7908;51.688;7.130;2023-10-19T08:03:43;13.60;99.90
15617;DHT22;7908;51.688;7.130;2023-10-19T08:06:15;13.60;99.90
15617;DHT22;7908;51.688;7.130;2023-10-19T08:08:44;13.60;99.90
15617;DHT22;7908;51.688;7.130;2023-10-19T08:11:15;13.60;99.90
15617;DHT22;7908;51.688;7.130;2023-10-19T08:13:46;13.60;99.90
15617;DHT22;7908;51.688;7.130;2023-10-19T08:16:17;13.60;99.90
15617;DHT22;7908;51.688;7.130;2023-10-19T08:18:46;13.70;99.90
15617;DHT22;7908;51.688;7.130;2023-10-19T08:21:25;13.70;99.90
15617;DHT22;7908;51.688;7.130;2023-10-19T08:23:56;13.70;99.90
15617;DHT22;7908;51.688;7.130;2023-10-19T08:26:25;13.80;99.90
15617;DHT22;7908;51.688;7.130;2023-10-19T08:28:58;13.80;99.90
15617;DHT22;7908;51.688;7.130;2023-10-19T08:31:27;13.80;99.90
15617;DHT22;7908;51.688;7.130;2023-10-19T08:33:56;13.90;99.90
15617;DHT22;7908;51.688;7.130;2023-10-19T08:36:25;14.00;99.90
15617;DHT22;7908;51.688;7.130;2023-10-19T08:38:56;14.10;99.90
15617;DHT22;7908;51.688;7.130;2023-10-19T08:41:25;14.10;99.90
15617;DHT22;7908;51.688;7.130;2023-10-19T08:43:58;14.20;99.90
15617;DHT22;7908;51.688;7.130;2023-10-19T08:46:29;14.30;99.90
15617;DHT22;7908;51.688;7.130;2023-10-19T08:49:02;14.50;99.90
15617;DHT22;7908;51.688;7.130;2023-10-19T08:51:31;14.50;99.90
15617;DHT22;7908;51.688;7.130;2023-10-19T08:54:04;14.60;99.90
15617;DHT22;7908;51.688;7.130;2023-10-19T08:56:36;14.70;99.90
15617;DHT22;7908;51.688;7.130;2023-10-19T08:59:07;14.80;99.90
15617;DHT22;7908;51.688;7.130;2023-10-19T09:01:38;14.90;99.90
15617;DHT22;7908;51.688;7.130;2023-10-19T09:04:07;14.90;99.90
15617;DHT22;7908;51.688;7.130;2023-10-19T09:06:37;14.90;99.90
15617;DHT22;7908;51.688;7.130;2023-10-19T09:09:11;15.00;99.90
15617;DHT22;7908;51.688;7.130;2023-10-19T09:11:45;15.00;99.90
15617;DHT22;7908;51.688;7.130;2023-10-19T09:14:31;15.00;99.90
15617;DHT22;7908;51.688;7.130;2023-10-19T09:17:01;15.00;99.90
15617;DHT22;7908;51.688;7.130;2023-10-19T09:19:37;15.10;99.90
15617;DHT22;7908;51.688;7.130;2023-10-19T09:22:09;15.10;99.90
15617;DHT22;7908;51.688;7.130;2023-10-19T09:24:49;15.10;99.90
15617;DHT22;7908;51.688;7.130;2023-10-19T09:27:22;15.20;99.90
15617;DHT22;7908;51.688;7.130;2023-10-19T09:29:53;15.30;99.90
15617;DHT22;7908;51.688;7.130;2023-10-19T09:32:23;15.40;99.90
15617;DHT22;7908;51.688;7.130;2023-10-19T09:34:53;15.40;99.90
15617;DHT22;7908;51.688;7.130;2023-10-19T09:37:23;15.40;99.90
15617;DHT22;7908;51.688;7.130;2023-10-19T09:39:54;15.40;99.90
15617;DHT22;7908;51.688;7.130;2023-10-19T09:42:24;15.40;99.90
15617;DHT22;7908;51.688;7.130;2023-10-19T09:45:00;15.40;99.90
15617;DHT22;7908;51.688;7.130;2023-10-19T09:47:36;15.40;99.90
15617;DHT22;7908;51.688;7.130;2023-10-19T09:50:09;15.50;99.90
15617;DHT22;7908;51.688;7.130;2023-10-19T09:52:40;15.60;99.90
15617;DHT22;7908;51.688;7.130;2023-10-19T09:55:14;15.70;99.90
15617;DHT22;7908;51.688;7.130;2023-10-19T09:57:52;15.80;99.90
15617;DHT22;7908;51.688;7.130;2023-10-19T10:00:24;15.90;99.90
15617;DHT22;7908;51.688;7.130;2023-10-19T10:02:59;16.00;99.90
15617;DHT22;7908;51.688;7.130;2023-10-19T10:05:45;16.00;99.90
15617;DHT22;7908;51.688;7.130;2023-10-19T10:08:37;16.00;99.90
15617;DHT22;7908;51.688;7.130;2023-10-19T10:11:20;16.00;99.90
15617;DHT22;7908;51.688;7.130;2023-10-19T10:13:50;16.00;99.90
15617;DHT22;7908;51.688;7.130;2023-10-19T10:16:28;16.10;99.90
15617;DHT22;7908;51.688;7.130;2023-10-19T10:18:59;16.30;99.90
15617;DHT22;7908;51.688;7.130;2023-10-19T10:21:29;16.30;99.90
15617;DHT22;7908;51.688;7.130;2023-10-19T10:24:05;16.40;99.90
15617;DHT22;7908;51.688;7.130;2023-10-19T10:26:58;16.40;99.90
15617;DHT22;7908;51.688;7.130;2023-10-19T10:29:27;16.40;99.90
15617;DHT22;7908;51.688;7.130;2023-10-19T10:32:00;16.60;99.90
15617;DHT22;7908;51.688;7.130;2023-10-19T10:34:47;16.60;99.90
15617;DHT22;7908;51.688;7.130;2023-10-19T10:37:20;16.50;99.90
15617;DHT22;7908;51.688;7.130;2023-10-19T10:39:49;16.50;99.90
15617;DHT22;7908;51.688;7.130;2023-10-19T10:42:18;16.50;99.90
15617;DHT22;7908;51.688;7.130;2023-10-19T10:44:48;16.60;99.90
15617;DHT22;7908;51.688;7.130;2023-10-19T10:47:22;16.60;99.90
15617;DHT22;7908;51.688;7.130;2023-10-19T10:49:55;16.60;99.90
15617;DHT22;7908;51.688;7.130;2023-10-19T10:52:26;16.70;99.90
15617;DHT22;7908;51.688;7.130;2023-10-19T10:54:57;16.80;99.90
15617;DHT22;7908;51.688;7.130;2023-10-19T10:57:32;16.70;99.90
15617;DHT22;7908;51.688;7.130;2023-10-19T11:00:04;16.70;99.90
15617;DHT22;7908;51.688;7.130;2023-10-19T11:02:37;16.80;99.90
15617;DHT22;7908;51.688;7.130;2023-10-19T11:05:11;16.80;99.90
15617;DHT22;7908;51.688;7.130;2023-10-19T11:07:41;16.90;99.90
15617;DHT22;7908;51.688;7.130;2023-10-19T11:10:11;16.90;99.90
15617;DHT22;7908;51.688;7.130;2023-10-19T11:12:40;16.90;99.90
15617;DHT22;7908;51.688;7.130;2023-10-19T11:15:09;16.90;99.90
15617;DHT22;7908;51.688;7.130;2023-10-19T11:17:44;16.90;99.90
15617;DHT22;7908;51.688;7.130;2023-10-19T11:20:21;17.00;99.90
15617;DHT22;7908;51.688;7.130;2023-10-19T11:22:51;17.00;99.90
15617;DHT22;7908;51.688;7.130;2023-10-19T11:25:24;16.90;99.90
15617;DHT22;7908;51.688;7.130;2023-10-19T11:27:56;16.80;99.90
15617;DHT22;7908;51.688;7.130;2023-10-19T11:30:27;16.80;99.90
15617;DHT22;7908;51.688;7.130;2023-10-19T11:32:58;16.90;99.90
15617;DHT22;7908;51.688;7.130;2023-10-19T11:35:29;16.90;99.90
15617;DHT22;7908;51.688;7.130;2023-10-19T11:38:00;17.00;99.90
15617;DHT22;7908;51.688;7.130;2023-10-19T11:40:40;17.10;99.90
15617;DHT22;7908;51.688;7.130;2023-10-19T11:43:12;17.20;99.90
15617;DHT22;7908;51.688;7.130;2023-10-19T11:45:46;17.20;99.90
15617;DHT22;7908;51.688;7.130;2023-10-19T11:48:16;17.20;99.90
15617;DHT22;7908;51.688;7.130;2023-10-19T11:50:46;17.20;99.90
15617;DHT22;7908;51.688;7.130;2023-10-19T11:53:16;17.20;99.90
15617;DHT22;7908;51.688;7.130;2023-10-19T11:55:46;17.20;99.90
15617;DHT22;7908;51.688;7.130;2023-10-19T11:58:20;17.20;99.90
15617;DHT22;7908;51.688;7.130;2023-10-19T12:00:53;17.20;99.90
15617;DHT22;7908;51.688;7.130;2023-10-19T12:03:26;17.20;99.90
15617;DHT22;7908;51.688;7.130;2023-10-19T12:05:56;17.20;99.90
15617;DHT22;7908;51.688;7.130;2023-10-19T12:08:26;17.20;99.90
15617;DHT22;7908;51.688;7.130;2023-10-19T12:10:56;17.10;99.90
15617;DHT22;7908;51.688;7.130;2023-10-19T12:13:25;17.20;99.90
15617;DHT22;7908;51.688;7.130;2023-10-19T12:15:59;17.20;99.90
15617;DHT22;7908;51.688;7.130;2023-10-19T12:18:37;17.30;99.90
15617;DHT22;7908;51.688;7.130;2023-10-19T12:21:09;17.30;99.90
15617;DHT22;7908;51.688;7.130;2023-10-19T12:23:41;17.30;99.90
15617;DHT22;7908;51.688;7.130;2023-10-19T12:26:11;17.30;99.90
15617;DHT22;7908;51.688;7.130;2023-10-19T12:28:40;17.20;99.90
15617;DHT22;7908;51.688;7.130;2023-10-19T12:31:13;17.20;99.90
15617;DHT22;7908;51.688;7.130;2023-10-19T12:33:48;17.10;99.90
15617;DHT22;7908;51.688;7.130;2023-10-19T12:36:18;17.00;99.90
15617;DHT22;7908;51.688;7.130;2023-10-19T12:39:02;16.90;99.90
15617;DHT22;7908;51.688;7.130;2023-10-19T12:41:37;16.90;99.90
15617;DHT22;7908;51.688;7.130;2023-10-19T12:44:06;16.80;99.90
15617;DHT22;7908;51.688;7.130;2023-10-19T12:46:36;16.80;99.90
15617;DHT22;7908;51.688;7.130;2023-10-19T12:49:13;16.90;99.90
15617;DHT22;7908;51.688;7.130;2023-10-19T12:51:45;16.90;99.90
15617;DHT22;7908;51.688;7.130;2023-10-19T12:54:15;17.00;99.90
15617;DHT22;7908;51.688;7.130;2023-10-19T12:56:46;17.00;99.90
15617;DHT22;7908;51.688;7.130;2023-10-19T12:59:21;17.10;99.90
15617;DHT22;7908;51.688;7.130;2023-10-19T13:01:50;17.10;99.90
15617;DHT22;7908;51.688;7.130;2023-10-19T13:04:27;17.10;99.90
15617;DHT22;7908;51.688;7.130;2023-10-19T13:07:01;17.10;99.90
15617;DHT22;7908;51.688;7.130;2023-10-19T13:09:33;17.10;99.90
15617;DHT22;7908;51.688;7.130;2023-10-19T13:12:04;17.10;99.90
15617;DHT22;7908;51.688;7.130;2023-10-19T13:14:35;17.00;99.90
15617;DHT22;7908;51.688;7.130;2023-10-19T13:17:04;16.90;99.90
15617;DHT22;7908;51.688;7.130;2023-10-19T13:19:36;17.00;99.90
15617;DHT22;7908;51.688;7.130;2023-10-19T13:22:05;16.90;99.90
15617;DHT22;7908;51.688;7.130;2023-10-19T13:24:35;16.90;99.90
15617;DHT22;7908;51.688;7.130;2023-10-19T13:27:09;17.00;99.90
15617;DHT22;7908;51.688;7.130;2023-10-19T13:29:39;17.00;99.90
15617;DHT22;7908;51.688;7.130;2023-10-19T13:32:10;17.00;99.90
15617;DHT22;7908;51.688;7.130;2023-10-19T13:34:40;17.00;99.90
15617;DHT22;7908;51.688;7.130;2023-10-19T13:37:10;16.90;99.90
15617;DHT22;7908;51.688;7.130;2023-10-19T13:39:39;16.90;99.90
15617;DHT22;7908;51.688;7.130;2023-10-19T13:42:11;16.90;99.90
15617;DHT22;7908;51.688;7.130;2023-10-19T13:44:42;16.90;99.90
15617;DHT22;7908;51.688;7.130;2023-10-19T13:47:17;16.90;99.90
15617;DHT22;7908;51.688;7.130;2023-10-19T13:50:03;16.80;99.90
15617;DHT22;7908;51.688;7.130;2023-10-19T13:52:35;16.80;99.90
15617;DHT22;7908;51.688;7.130;2023-10-19T13:55:08;16.80;99.90
15617;DHT22;7908;51.688;7.130;2023-10-19T13:57:40;16.90;99.90
15617;DHT22;7908;51.688;7.130;2023-10-19T14:00:11;16.90;99.90
15617;DHT22;7908;51.688;7.130;2023-10-19T14:02:50;16.90;99.90
15617;DHT22;7908;51.688;7.130;2023-10-19T14:05:25;16.80;99.90
15617;DHT22;7908;51.688;7.130;2023-10-19T14:07:54;16.80;99.90
15617;DHT22;7908;51.688;7.130;2023-10-19T14:10:24;16.80;99.90
15617;DHT22;7908;51.688;7.130;2023-10-19T14:12:55;16.80;99.90
15617;DHT22;7908;51.688;7.130;2023-10-19T14:15:25;16.70;99.90
15617;DHT22;7908;51.688;7.130;2023-10-19T14:17:58;16.70;99.90
15617;DHT22;7908;51.688;7.130;2023-10-19T14:20:30;16.70;99.90
15617;DHT22;7908;51.688;7.130;2023-10-19T14:23:02;16.60;99.90
15617;DHT22;7908;51.688;7.130;2023-10-19T14:25:39;16.70;99.90
15617;DHT22;7908;51.688;7.130;2023-10-19T14:28:14;16.60;99.90
15617;DHT22;7908;51.688;7.130;2023-10-19T14:30:50;16.60;99.90
15617;DHT22;7908;51.688;7.130;2023-10-19T14:33:23;16.50;99.90
15617;DHT22;7908;51.688;7.130;2023-10-19T14:36:07;16.50;99.90
15617;DHT22;7908;51.688;7.130;2023-10-19T14:38:36;16.50;99.90
15617;DHT22;7908;51.688;7.130;2023-10-19T14:41:07;16.50;99.90
15617;DHT22;7908;51.688;7.130;2023-10-19T14:43:42;16.50;99.90
15617;DHT22;7908;51.688;7.130;2023-10-19T14:46:13;16.50;99.90
15617;DHT22;7908;51.688;7.130;2023-10-19T14:48:54;16.50;99.90
15617;DHT22;7908;51.688;7.130;2023-10-19T14:51:27;16.50;99.90
15617;DHT22;7908;51.688;7.130;2023-10-19T14:53:57;16.40;99.90
15617;DHT22;7908;51.688;7.130;2023-10-19T14:56:33;16.40;99.90
15617;DHT22;7908;51.688;7.130;2023-10-19T14:59:09;16.40;99.90
15617;DHT22;7908;51.688;7.130;2023-10-19T15:04:52;16.50;99.90
15617;DHT22;7908;51.688;7.130;2023-10-19T15:07:47;16.50;99.90
15617;DHT22;7908;51.688;7.130;2023-10-19T15:10:26;16.50;99.90
15617;DHT22;7908;51.688;7.130;2023-10-19T15:13:14;16.50;99.90
15617;DHT22;7908;51.688;7.130;2023-10-19T15:16:06;16.50;99.90
15617;DHT22;7908;51.688;7.130;2023-10-19T15:18:47;16.50;99.90
15617;DHT22;7908;51.688;7.130;2023-10-19T15:21:20;16.40;99.90
15617;DHT22;7908;51.688;7.130;2023-10-19T15:23:59;16.40;99.90
15617;DHT22;7908;51.688;7.130;2023-10-19T15:26:44;16.40;99.90
15617;DHT22;7908;51.688;7.130;2023-10-19T15:29:16;16.30;99.90
15617;DHT22;7908;51.688;7.130;2023-10-19T15:31:48;16.30;99.90
15617;DHT22;7908;51.688;7.130;2023-10-19T15:34:21;16.30;99.90
15617;DHT22;7908;51.688;7.130;2023-10-19T15:36:58;16.30;99.90
15617;DHT22;7908;51.688;7.130;2023-10-19T15:39:29;16.20;99.90
15617;DHT22;7908;51.688;7.130;2023-10-19T15:42:04;16.20;99.90
15617;DHT22;7908;51.688;7.130;2023-10-19T15:44:37;16.20;99.90
15617;DHT22;7908;51.688;7.130;2023-10-19T15:47:16;16.20;99.90
15617;DHT22;7908;51.688;7.130;2023-10-19T15:49:50;16.10;99.90
15617;DHT22;7908;51.688;7.130;2023-10-19T15:52:27;16.10;99.90
15617;DHT22;7908;51.688;7.130;2023-10-19T15:55:10;16.10;99.90
15617;DHT22;7908;51.688;7.130;2023-10-19T15:57:45;16.10;99.90
15617;DHT22;7908;51.688;7.130;2023-10-19T16:00:19;16.10;99.90
15617;DHT22;7908;51.688;7.130;2023-10-19T16:02:58;16.00;99.90
15617;DHT22;7908;51.688;7.130;2023-10-19T16:05:31;16.00;99.90
15617;DHT22;7908;51.688;7.130;2023-10-19T16:08:02;16.00;99.90
15617;DHT22;7908;51.688;7.130;2023-10-19T16:10:38;16.00;99.90
15617;DHT22;7908;51.688;7.130;2023-10-19T16:13:08;15.90;99.90
15617;DHT22;7908;51.688;7.130;2023-10-19T16:15:42;15.90;99.90
15617;DHT22;7908;51.688;7.130;2023-10-19T16:18:20;15.90;99.90
15617;DHT22;7908;51.688;7.130;2023-10-19T16:20:51;15.90;99.90
15617;DHT22;7908;51.688;7.130;2023-10-19T16:23:25;15.90;99.90